createdAt,value
2023-05-21T00:01:11.046Z,68.00
2023-05-21T00:03:11.086Z,68.00
2023-05-21T00:05:13.677Z,68.00
2023-05-21T00:07:10.991Z,68.00
2023-05-21T00:09:11.299Z,69.00
2023-05-21T00:11:10.976Z,69.00
2023-05-21T00:13:10.965Z,69.00
2023-05-21T00:15:10.983Z,69.00
2023-05-21T00:17:11.001Z,69.00
2023-05-21T00:19:11.071Z,69.00
2023-05-21T00:21:11.041Z,69.00
2023-05-21T00:23:13.756Z,69.00
2023-05-21T00:25:11.008Z,69.00
2023-05-21T00:27:11.007Z,69.00
2023-05-21T00:29:11.016Z,69.00
2023-05-21T00:31:11.381Z,69.00
2023-05-21T00:33:11.077Z,69.00
2023-05-21T00:35:11.035Z,69.00
2023-05-21T00:37:11.053Z,69.00
2023-05-21T00:39:11.342Z,69.00
2023-05-21T00:41:14.334Z,69.00
2023-05-21T00:43:11.022Z,69.00
2023-05-21T00:45:11.048Z,69.00
2023-05-21T00:47:11.055Z,69.00
2023-05-21T00:49:12.200Z,70.00
2023-05-21T00:51:11.138Z,70.00
2023-05-21T00:53:11.033Z,70.00
2023-05-21T00:55:11.155Z,70.00
2023-05-21T00:57:15.634Z,70.00
2023-05-21T00:59:10.979Z,70.00
2023-05-21T01:01:11.260Z,70.00
2023-05-21T01:03:11.211Z,70.00
2023-05-21T01:05:11.004Z,70.00
2023-05-21T01:07:11.029Z,70.00
2023-05-21T01:09:11.037Z,70.00
2023-05-21T01:11:11.123Z,70.00
2023-05-21T01:13:11.012Z,70.00
2023-05-21T01:15:11.105Z,70.00
2023-05-21T01:17:11.480Z,70.00
2023-05-21T01:19:11.204Z,70.00
2023-05-21T01:21:11.119Z,70.00
2023-05-21T01:23:11.151Z,70.00
2023-05-21T01:25:13.920Z,70.00
2023-05-21T01:27:11.174Z,70.00
2023-05-21T01:29:11.183Z,71.00
2023-05-21T01:31:11.030Z,71.00
2023-05-21T01:33:11.249Z,71.00
2023-05-21T01:35:11.563Z,71.00
2023-05-21T01:37:11.012Z,71.00
2023-05-21T01:39:11.076Z,72.00
2023-05-21T01:41:11.096Z,72.00
2023-05-21T01:43:11.056Z,72.00
2023-05-21T01:45:11.129Z,72.00
2023-05-21T01:47:11.067Z,72.00
2023-05-21T01:49:11.167Z,72.00
2023-05-21T01:51:11.053Z,72.00
2023-05-21T01:53:11.028Z,72.00
2023-05-21T01:55:11.122Z,73.00
2023-05-21T01:57:11.126Z,73.00
2023-05-21T01:59:11.257Z,73.00
2023-05-21T02:01:11.106Z,73.00
2023-05-21T02:03:11.163Z,73.00
2023-05-21T02:05:11.110Z,72.00
2023-05-21T02:07:11.057Z,72.00
2023-05-21T02:09:12.019Z,72.00
2023-05-21T02:12:11.087Z,72.00
2023-05-21T02:14:11.065Z,72.00
2023-05-21T02:16:11.144Z,72.00
2023-05-21T02:17:13.811Z,72.00
2023-05-21T02:20:11.065Z,72.00
2023-05-21T02:22:11.184Z,72.00
2023-05-21T02:23:15.006Z,72.00
2023-05-21T02:26:11.115Z,72.00
2023-05-21T02:28:11.218Z,72.00
2023-05-21T02:30:11.071Z,72.00
2023-05-21T02:32:11.062Z,72.00
2023-05-21T02:34:11.364Z,72.00
2023-05-21T02:36:11.142Z,73.00
2023-05-21T02:38:11.063Z,73.00
2023-05-21T02:40:14.014Z,73.00
2023-05-21T02:42:11.057Z,73.00
2023-05-21T02:44:11.129Z,73.00
2023-05-21T02:46:11.260Z,73.00
2023-05-21T02:48:11.206Z,73.00
2023-05-21T02:50:11.361Z,73.00
2023-05-21T02:52:11.127Z,73.00
2023-05-21T02:54:11.272Z,73.00
2023-05-21T02:56:11.190Z,74.00
2023-05-21T02:58:13.969Z,74.00
2023-05-21T03:00:11.214Z,74.00
2023-05-21T03:02:11.359Z,74.00
2023-05-21T03:04:11.178Z,74.00
2023-05-21T03:06:11.175Z,73.00
2023-05-21T03:08:11.175Z,73.00
2023-05-21T03:10:13.775Z,73.00
2023-05-21T03:12:11.264Z,73.00
2023-05-21T03:14:11.153Z,73.00
2023-05-21T03:16:11.172Z,72.00
2023-05-21T03:18:11.133Z,72.00
2023-05-21T03:20:11.157Z,72.00
2023-05-21T03:22:11.400Z,72.00
2023-05-21T03:24:11.186Z,72.00
2023-05-21T03:26:11.157Z,72.00
2023-05-21T03:28:11.116Z,72.00
2023-05-21T03:30:11.126Z,72.00
2023-05-21T03:32:11.129Z,72.00
2023-05-21T03:34:11.145Z,72.00
2023-05-21T03:36:11.232Z,72.00
2023-05-21T03:38:11.131Z,72.00
2023-05-21T03:40:11.149Z,72.00
2023-05-21T03:42:13.948Z,72.00
2023-05-21T03:44:11.252Z,72.00
2023-05-21T03:46:11.206Z,72.00
2023-05-21T03:48:11.366Z,72.00
2023-05-21T03:50:11.838Z,73.00
2023-05-21T03:52:11.180Z,73.00
2023-05-21T03:54:11.158Z,73.00
2023-05-21T03:56:12.112Z,73.00
2023-05-21T03:58:11.170Z,73.00
2023-05-21T04:00:14.071Z,73.00
2023-05-21T04:02:11.302Z,73.00
2023-05-21T04:04:11.358Z,74.00
2023-05-21T04:06:11.209Z,74.00
2023-05-21T04:08:11.407Z,74.00
2023-05-21T04:10:11.176Z,74.00
2023-05-21T04:12:11.437Z,73.00
2023-05-21T04:14:11.413Z,73.00
2023-05-21T04:16:11.199Z,73.00
2023-05-21T04:18:11.237Z,74.00
2023-05-21T04:20:11.176Z,73.00
2023-05-21T04:24:30.823Z,73.00
2023-05-21T04:26:30.539Z,73.00
2023-05-21T04:28:30.462Z,73.00
2023-05-21T04:30:34.081Z,73.00
2023-05-21T04:32:30.511Z,73.00
2023-05-21T04:34:30.561Z,73.00
2023-05-21T04:36:30.488Z,73.00
2023-05-21T04:38:30.451Z,73.00
2023-05-21T04:40:30.572Z,73.00
2023-05-21T04:42:30.585Z,73.00
2023-05-21T04:44:30.488Z,73.00
2023-05-21T04:46:30.543Z,73.00
2023-05-21T04:48:30.484Z,73.00
2023-05-21T04:50:30.476Z,72.00
2023-05-21T04:52:30.459Z,72.00
2023-05-21T04:54:30.526Z,72.00
2023-05-21T04:56:30.494Z,72.00
2023-05-21T04:58:30.532Z,72.00
2023-05-21T05:00:30.631Z,72.00
2023-05-21T05:02:30.511Z,72.00
2023-05-21T05:04:30.517Z,73.00
2023-05-21T05:06:30.502Z,73.00
2023-05-21T05:08:30.534Z,73.00
2023-05-21T05:10:30.496Z,73.00
2023-05-21T05:12:30.638Z,73.00
2023-05-21T05:14:30.504Z,73.00
2023-05-21T05:16:30.544Z,73.00
2023-05-21T05:18:30.531Z,72.00
2023-05-21T05:20:30.573Z,72.00
2023-05-21T05:22:30.544Z,72.00
2023-05-21T05:24:30.562Z,72.00
2023-05-21T05:26:30.554Z,72.00
2023-05-21T05:28:30.523Z,72.00
2023-05-21T05:30:30.601Z,72.00
2023-05-21T05:32:33.539Z,72.00
2023-05-21T05:34:30.500Z,72.00
2023-05-21T05:36:30.553Z,72.00
2023-05-21T05:38:30.550Z,71.00
2023-05-21T05:40:30.514Z,71.00
2023-05-21T05:42:30.525Z,71.00
2023-05-21T05:44:30.503Z,71.00
2023-05-21T05:46:30.712Z,71.00
2023-05-21T05:48:30.648Z,70.00
2023-05-21T05:50:30.628Z,70.00
2023-05-21T05:52:30.626Z,70.00
2023-05-21T05:54:30.543Z,70.00
2023-05-21T05:56:30.524Z,70.00
2023-05-21T05:58:30.499Z,70.00
2023-05-21T06:00:30.578Z,70.00
2023-05-21T06:02:30.654Z,69.00
2023-05-21T06:04:30.537Z,70.00
2023-05-21T06:06:30.610Z,69.00
2023-05-21T06:08:33.252Z,69.00
2023-05-21T06:10:30.618Z,69.00
2023-05-21T06:12:30.673Z,69.00
2023-05-21T06:14:30.632Z,69.00
2023-05-21T06:16:30.679Z,68.00
2023-05-21T06:18:32.196Z,68.00
2023-05-21T06:20:30.985Z,69.00
2023-05-21T06:22:30.561Z,69.00
2023-05-21T06:24:31.016Z,69.00
2023-05-21T06:26:30.727Z,69.00
2023-05-21T06:28:30.638Z,69.00
2023-05-21T06:30:30.558Z,68.00
2023-05-21T06:32:30.625Z,68.00
2023-05-21T06:34:30.582Z,67.00
2023-05-21T06:36:39.196Z,67.00
2023-05-21T06:38:33.480Z,68.00
2023-05-21T06:40:30.621Z,67.00
2023-05-21T06:42:33.377Z,67.00
2023-05-21T06:44:32.835Z,66.00
2023-05-21T06:46:30.767Z,66.00
2023-05-21T06:48:30.615Z,67.00
2023-05-21T06:50:36.226Z,67.00
2023-05-21T06:52:30.645Z,67.00
2023-05-21T06:54:33.593Z,67.00
2023-05-21T06:56:30.727Z,66.00
2023-05-21T06:58:30.545Z,66.00
2023-05-21T07:00:30.558Z,66.00
2023-05-21T07:02:30.720Z,66.00
2023-05-21T07:04:30.588Z,66.00
2023-05-21T07:06:30.580Z,66.00
2023-05-21T07:08:30.694Z,66.00
2023-05-21T07:10:30.575Z,66.00
2023-05-21T07:12:30.598Z,66.00
2023-05-21T07:14:30.903Z,66.00
2023-05-21T07:17:30.687Z,66.00
2023-05-21T07:19:30.631Z,66.00
2023-05-21T07:21:30.658Z,65.00
2023-05-21T07:22:33.061Z,64.00
2023-05-21T07:25:30.682Z,64.00
2023-05-21T07:27:30.740Z,64.00
2023-05-21T07:29:30.648Z,64.00
2023-05-21T07:31:30.694Z,64.00
2023-05-21T07:33:30.797Z,64.00
2023-05-21T07:35:30.644Z,65.00
2023-05-21T07:37:33.243Z,65.00
2023-05-21T07:39:31.377Z,64.00
2023-05-21T07:41:30.848Z,64.00
2023-05-21T07:43:30.653Z,64.00
2023-05-21T07:45:30.600Z,64.00
2023-05-21T07:47:30.754Z,64.00
2023-05-21T07:49:30.620Z,64.00
2023-05-21T07:51:45.497Z,63.00
2023-05-21T07:53:30.607Z,63.00
2023-05-21T07:55:30.659Z,63.00
2023-05-21T07:57:30.767Z,63.00
2023-05-21T07:59:30.662Z,62.00
2023-05-21T08:01:33.320Z,62.00
2023-05-21T08:03:30.824Z,62.00
2023-05-21T08:05:30.678Z,62.00
2023-05-21T08:07:30.624Z,62.00
2023-05-21T08:09:39.362Z,62.00
2023-05-21T08:11:30.889Z,62.00
2023-05-21T08:13:30.677Z,62.00
2023-05-21T08:15:33.623Z,62.00
2023-05-21T08:17:30.699Z,62.00
2023-05-21T08:19:33.792Z,62.00
2023-05-21T08:21:30.701Z,62.00
2023-05-21T08:23:30.711Z,62.00
2023-05-21T08:25:30.866Z,62.00
2023-05-21T08:27:30.681Z,62.00
2023-05-21T08:29:30.830Z,62.00
2023-05-21T08:31:30.727Z,62.00
2023-05-21T08:33:33.295Z,62.00
2023-05-21T08:35:33.788Z,61.00
2023-05-21T08:37:33.292Z,62.00
2023-05-21T08:39:30.728Z,61.00
2023-05-21T08:41:30.746Z,61.00
2023-05-21T08:43:30.702Z,61.00
2023-05-21T08:45:30.749Z,61.00
2023-05-21T08:47:33.690Z,60.00
2023-05-21T08:49:30.744Z,60.00
2023-05-21T08:51:30.728Z,60.00
2023-05-21T08:53:30.644Z,60.00
2023-05-21T08:55:30.750Z,61.00
2023-05-21T08:57:30.890Z,61.00
2023-05-21T08:59:30.831Z,60.00
2023-05-21T09:01:30.816Z,60.00
2023-05-21T09:03:35.564Z,60.00
2023-05-21T09:05:30.690Z,59.00
2023-05-21T09:07:30.627Z,60.00
2023-05-21T09:09:33.214Z,60.00
2023-05-21T09:11:33.677Z,60.00
2023-05-21T09:13:30.814Z,60.00
2023-05-21T09:15:30.820Z,59.00
2023-05-21T09:17:30.825Z,60.00
2023-05-21T09:19:30.920Z,60.00
2023-05-21T09:21:30.782Z,60.00
2023-05-21T09:23:31.403Z,59.00
2023-05-21T09:25:30.820Z,60.00
2023-05-21T09:27:30.746Z,59.00
2023-05-21T09:29:30.712Z,59.00
2023-05-21T09:31:30.801Z,58.00
2023-05-21T09:33:30.833Z,58.00
2023-05-21T09:35:34.230Z,58.00
2023-05-21T09:37:30.757Z,58.00
2023-05-21T09:39:30.942Z,58.00
2023-05-21T09:41:30.764Z,58.00
2023-05-21T09:43:30.733Z,58.00
2023-05-21T09:45:30.982Z,58.00
2023-05-21T09:47:31.024Z,58.00
2023-05-21T09:49:30.813Z,58.00
2023-05-21T09:51:30.673Z,58.00
2023-05-21T09:53:30.783Z,56.00
2023-05-21T09:55:30.802Z,55.00
2023-05-21T09:57:35.626Z,55.00
2023-05-21T09:59:31.084Z,55.00
2023-05-21T10:01:30.747Z,56.00
2023-05-21T10:03:33.596Z,56.00
2023-05-21T10:05:30.760Z,56.00
2023-05-21T10:07:36.773Z,56.00
2023-05-21T10:09:33.394Z,56.00
2023-05-21T10:11:30.752Z,56.00
2023-05-21T10:13:33.680Z,57.00
2023-05-21T10:15:30.721Z,56.00
2023-05-21T10:17:31.184Z,56.00
2023-05-21T10:19:33.751Z,56.00
2023-05-21T10:21:30.995Z,57.00
2023-05-21T10:23:31.308Z,57.00
2023-05-21T10:25:30.809Z,57.00
2023-05-21T10:27:32.216Z,57.00
2023-05-21T10:29:31.094Z,56.00
2023-05-21T10:31:30.731Z,56.00
2023-05-21T10:33:30.955Z,57.00
2023-05-21T10:35:30.992Z,57.00
2023-05-21T10:37:30.781Z,57.00
2023-05-21T10:39:31.091Z,56.00
2023-05-21T10:41:30.847Z,56.00
2023-05-21T10:43:31.240Z,56.00
2023-05-21T10:47:56.021Z,56.00
2023-05-21T10:49:46.929Z,56.00
2023-05-21T10:51:55.923Z,57.00
2023-05-21T10:53:49.649Z,56.00
2023-05-21T10:55:47.008Z,57.00
2023-05-21T10:57:47.022Z,57.00
2023-05-21T10:59:49.862Z,55.00
2023-05-21T11:01:47.152Z,56.00
2023-05-21T11:03:47.027Z,56.00
2023-05-21T11:05:46.927Z,56.00
2023-05-21T11:07:46.858Z,56.00
2023-05-21T11:09:46.907Z,55.00
2023-05-21T11:11:46.897Z,55.00
2023-05-21T11:13:47.021Z,53.00
2023-05-21T11:15:46.863Z,54.00
2023-05-21T11:17:46.988Z,54.00
2023-05-21T11:19:52.624Z,53.00
2023-05-21T11:21:52.675Z,52.00
2023-05-21T11:23:55.978Z,51.00
2023-05-21T11:25:49.776Z,52.00
2023-05-21T11:27:46.888Z,52.00
2023-05-21T11:29:46.941Z,50.00
2023-05-21T11:31:46.935Z,51.00
2023-05-21T11:33:46.975Z,54.00
2023-05-21T11:35:47.021Z,54.00
2023-05-21T11:37:46.887Z,52.00
2023-05-21T11:39:46.891Z,52.00
2023-05-21T11:41:49.869Z,50.00
2023-05-21T11:43:46.968Z,51.00
2023-05-21T11:45:50.401Z,51.00
2023-05-21T11:47:47.409Z,52.00
2023-05-21T11:49:47.154Z,49.00
2023-05-21T11:51:46.950Z,49.00
2023-05-21T11:53:46.970Z,48.00
2023-05-21T11:55:49.852Z,48.00
2023-05-21T11:57:50.282Z,48.00
2023-05-21T11:59:46.912Z,47.00
2023-05-21T12:01:46.922Z,48.00
2023-05-21T12:03:49.681Z,48.00
2023-05-21T12:06:01.288Z,48.00
2023-05-21T12:08:46.943Z,47.00
2023-05-21T12:10:47.059Z,47.00
2023-05-21T12:12:55.555Z,47.00
2023-05-21T12:14:55.836Z,48.00
2023-05-21T12:16:49.663Z,49.00
2023-05-21T12:18:46.954Z,49.00
2023-05-21T12:20:46.996Z,48.00
2023-05-21T12:22:46.991Z,48.00
2023-05-21T12:24:47.135Z,48.00
2023-05-21T12:26:49.450Z,50.00
2023-05-21T12:28:47.019Z,50.00
2023-05-21T12:30:46.985Z,48.00
2023-05-21T12:32:55.551Z,48.00
2023-05-21T12:34:46.997Z,49.00
2023-05-21T12:35:55.782Z,49.00
2023-05-21T12:38:46.944Z,49.00
2023-05-21T12:40:47.208Z,50.00
2023-05-21T12:42:47.052Z,49.00
2023-05-21T12:44:49.773Z,49.00
2023-05-21T12:46:47.068Z,49.00
2023-05-21T12:48:46.946Z,49.00
2023-05-21T12:50:49.563Z,48.00
2023-05-21T12:52:50.078Z,50.00
2023-05-21T12:54:47.033Z,50.00
2023-05-21T12:56:47.084Z,50.00
2023-05-21T12:58:49.938Z,49.00
2023-05-21T13:00:49.602Z,49.00
2023-05-21T13:02:47.111Z,51.00
2023-05-21T13:04:47.001Z,51.00
2023-05-21T13:06:47.101Z,50.00
2023-05-21T13:08:52.652Z,49.00
2023-05-21T13:10:47.931Z,48.00
2023-05-21T13:12:50.122Z,48.00
2023-05-21T13:14:46.985Z,48.00
2023-05-21T13:16:49.638Z,48.00
2023-05-21T13:18:50.075Z,48.00
2023-05-21T13:20:47.175Z,48.00
2023-05-21T13:22:47.475Z,48.00
2023-05-21T13:24:46.991Z,48.00
2023-05-21T13:26:47.074Z,48.00
2023-05-21T13:28:46.988Z,47.00
2023-05-21T13:30:47.068Z,48.00
2023-05-21T13:32:47.300Z,48.00
2023-05-21T13:34:47.053Z,48.00
2023-05-21T13:36:47.112Z,48.00
2023-05-21T13:38:49.851Z,47.00
2023-05-21T13:40:47.113Z,48.00
2023-05-21T13:42:47.225Z,48.00
2023-05-21T13:44:49.761Z,48.00
2023-05-21T13:46:47.314Z,47.00
2023-05-21T13:48:47.040Z,48.00
2023-05-21T13:50:47.017Z,47.00
2023-05-21T13:52:47.059Z,47.00
2023-05-21T13:54:51.886Z,47.00
2023-05-21T13:56:52.302Z,47.00
2023-05-21T13:59:12.196Z,48.00
2023-05-21T14:01:21.841Z,48.00
2023-05-21T14:03:10.557Z,50.00
2023-05-21T14:04:50.004Z,50.00
2023-05-21T14:06:47.214Z,51.00
2023-05-21T14:08:57.150Z,51.00
2023-05-21T14:10:47.098Z,51.00
2023-05-21T14:12:50.150Z,50.00
2023-05-21T14:14:47.195Z,50.00
2023-05-21T14:16:47.294Z,50.00
2023-05-21T14:18:56.228Z,49.00
2023-05-21T14:20:52.759Z,49.00
2023-05-21T14:22:47.124Z,49.00
2023-05-21T14:24:47.197Z,47.00
2023-05-21T14:26:48.025Z,46.00
2023-05-21T14:28:52.980Z,45.00
2023-05-21T14:30:52.725Z,45.00
2023-05-21T14:32:47.179Z,45.00
2023-05-21T14:34:47.190Z,45.00
2023-05-21T14:36:49.904Z,43.00
2023-05-21T14:38:49.851Z,43.00
2023-05-21T14:40:49.597Z,43.00
2023-05-21T14:42:47.203Z,43.00
2023-05-21T14:44:49.847Z,42.00
2023-05-21T14:46:56.166Z,42.00
2023-05-21T14:48:53.061Z,42.00
2023-05-21T14:50:56.240Z,42.00
2023-05-21T14:52:52.935Z,42.00
2023-05-21T14:54:59.137Z,42.00
2023-05-21T14:56:59.151Z,42.00
2023-05-21T14:58:53.208Z,42.00
2023-05-21T15:00:47.256Z,42.00
2023-05-21T15:02:50.347Z,42.00
2023-05-21T15:04:50.041Z,43.00
2023-05-21T15:06:49.951Z,43.00
2023-05-21T15:08:47.426Z,42.00
2023-05-21T15:10:47.552Z,43.00
2023-05-21T15:12:47.254Z,42.00
2023-05-21T15:14:47.136Z,42.00
2023-05-21T15:16:47.232Z,42.00
2023-05-21T15:18:47.247Z,41.00
2023-05-21T15:20:50.125Z,41.00
2023-05-21T15:22:47.224Z,42.00
2023-05-21T15:24:47.470Z,42.00
2023-05-21T15:26:48.915Z,42.00
2023-05-21T15:28:47.123Z,43.00
2023-05-21T15:30:47.466Z,43.00
2023-05-21T15:32:47.165Z,45.00
2023-05-21T15:34:47.210Z,45.00
2023-05-21T15:36:47.151Z,47.00
2023-05-21T15:38:47.114Z,47.00
2023-05-21T15:40:47.162Z,48.00
2023-05-21T15:42:47.129Z,48.00
2023-05-21T15:44:47.277Z,48.00
2023-05-21T15:46:47.250Z,49.00
2023-05-21T15:48:47.387Z,48.00
2023-05-21T15:50:47.200Z,48.00
2023-05-21T15:52:47.199Z,48.00
2023-05-21T15:54:52.972Z,48.00
2023-05-21T15:56:53.324Z,48.00
2023-05-21T15:59:47.190Z,48.00
2023-05-21T16:00:53.163Z,48.00
2023-05-21T16:03:47.214Z,48.00
2023-05-21T16:04:56.168Z,48.00
2023-05-21T16:07:52.144Z,48.00
2023-05-21T16:08:52.466Z,49.00
2023-05-21T16:11:47.166Z,48.00
2023-05-21T16:13:49.932Z,48.00
2023-05-21T16:15:47.146Z,48.00
2023-05-21T16:17:48.657Z,48.00
2023-05-21T16:19:50.264Z,48.00
2023-05-21T16:21:47.217Z,48.00
2023-05-21T16:23:47.195Z,48.00
2023-05-21T16:25:47.484Z,48.00
2023-05-21T16:27:47.468Z,48.00
2023-05-21T16:29:47.246Z,48.00
2023-05-21T16:31:47.411Z,48.00
2023-05-21T16:32:59.573Z,48.00
2023-05-21T16:34:59.648Z,48.00
2023-05-21T16:36:59.587Z,48.00
2023-05-21T16:38:59.506Z,46.00
2023-05-21T16:40:59.392Z,46.00
2023-05-21T16:43:01.194Z,45.00
2023-05-21T16:45:13.836Z,45.00
2023-05-21T16:47:08.766Z,45.00
2023-05-21T16:49:59.476Z,46.00
2023-05-21T16:51:08.691Z,46.00
2023-05-21T16:53:59.560Z,45.00
2023-05-21T16:56:13.739Z,45.00
2023-05-21T16:57:59.546Z,45.00
2023-05-21T16:59:59.450Z,45.00
2023-05-21T17:01:59.838Z,45.00
2023-05-21T17:04:09.073Z,45.00
2023-05-21T17:06:12.183Z,45.00
2023-05-21T17:07:59.858Z,45.00
2023-05-21T17:09:59.866Z,46.00
2023-05-21T17:12:02.205Z,47.00
2023-05-21T17:13:59.501Z,47.00
2023-05-21T17:15:13.802Z,47.00
2023-05-21T17:17:59.559Z,47.00
2023-05-21T17:19:13.831Z,47.00
2023-05-21T17:21:59.424Z,48.00
2023-05-21T17:24:02.398Z,48.00
2023-05-21T17:26:02.410Z,48.00
2023-05-21T17:27:59.861Z,49.00
2023-05-21T17:30:14.155Z,49.00
2023-05-21T17:32:13.782Z,49.00
2023-05-21T17:34:02.748Z,49.00
2023-05-21T17:35:59.513Z,50.00
2023-05-21T17:38:11.832Z,50.00
2023-05-21T17:39:59.508Z,50.00
2023-05-21T17:42:05.772Z,50.00
2023-05-21T17:44:11.478Z,50.00
2023-05-21T17:45:59.608Z,50.00
2023-05-21T17:48:00.191Z,50.00
2023-05-21T17:49:59.984Z,50.00
2023-05-21T17:52:13.884Z,50.00
2023-05-21T17:54:05.898Z,50.00
2023-05-21T17:55:59.901Z,51.00
2023-05-21T17:57:59.536Z,51.00
2023-05-21T17:59:59.635Z,51.00
2023-05-21T18:02:00.261Z,51.00
2023-05-21T18:03:59.931Z,51.00
2023-05-21T18:05:59.722Z,51.00
2023-05-21T18:08:02.583Z,51.00
2023-05-21T18:09:59.558Z,51.00
2023-05-21T18:12:00.019Z,52.00
2023-05-21T18:14:02.736Z,52.00
2023-05-21T18:15:59.900Z,52.00
2023-05-21T18:18:03.197Z,52.00
2023-05-21T18:20:08.693Z,52.00
2023-05-21T18:21:59.983Z,53.00
2023-05-21T18:24:13.805Z,53.00
2023-05-21T18:26:14.385Z,53.00
2023-05-21T18:28:04.377Z,53.00
2023-05-21T18:29:59.643Z,53.00
2023-05-21T18:32:00.553Z,54.00
2023-05-21T18:34:01.030Z,55.00
2023-05-21T18:36:02.414Z,55.00
2023-05-21T18:37:59.536Z,55.00
2023-05-21T18:39:59.898Z,55.00
2023-05-21T18:42:12.940Z,55.00
2023-05-21T18:44:00.214Z,54.00
2023-05-21T18:45:59.606Z,55.00
2023-05-21T18:47:59.749Z,55.00
2023-05-21T18:50:02.555Z,56.00
2023-05-21T18:52:02.631Z,56.00
2023-05-21T18:54:09.135Z,56.00
2023-05-21T18:56:02.636Z,56.00
2023-05-21T18:58:00.700Z,56.00
2023-05-21T19:00:00.237Z,56.00
2023-05-21T19:01:59.776Z,57.00
2023-05-21T19:04:12.718Z,57.00
2023-05-21T19:05:59.546Z,57.00
2023-05-21T19:07:59.692Z,57.00
2023-05-21T19:09:59.801Z,58.00
2023-05-21T19:11:59.723Z,58.00
2023-05-21T19:14:05.452Z,58.00
2023-05-21T19:16:02.571Z,58.00
2023-05-21T19:18:08.630Z,58.00
2023-05-21T19:19:59.823Z,58.00
2023-05-21T19:22:07.540Z,60.00
2023-05-21T19:24:00.477Z,60.00
2023-05-21T19:25:59.501Z,60.00
2023-05-21T19:27:59.579Z,60.00
2023-05-21T19:29:59.714Z,61.00
2023-05-21T19:31:59.750Z,61.00
2023-05-21T19:33:59.608Z,62.00
2023-05-21T19:36:02.414Z,62.00
2023-05-21T19:38:00.764Z,62.00
2023-05-21T19:40:05.514Z,62.00
2023-05-21T19:42:02.239Z,62.00
2023-05-21T19:43:59.620Z,62.00
2023-05-21T19:46:09.035Z,63.00
2023-05-21T19:48:02.411Z,64.00
2023-05-21T19:50:13.846Z,64.00
2023-05-21T19:52:02.268Z,64.00
2023-05-21T19:54:13.838Z,64.00
2023-05-21T19:56:05.223Z,65.00
2023-05-21T19:58:02.210Z,65.00
2023-05-21T19:59:59.616Z,65.00
2023-05-21T20:02:02.459Z,65.00
2023-05-21T20:04:02.716Z,65.00
2023-05-21T20:05:59.578Z,65.00
2023-05-21T20:07:59.550Z,65.00
2023-05-21T20:10:02.716Z,65.00
2023-05-21T20:12:11.874Z,65.00
2023-05-21T20:13:59.593Z,65.00
2023-05-21T20:15:59.579Z,66.00
2023-05-21T20:17:59.669Z,66.00
2023-05-21T20:19:59.614Z,66.00
2023-05-21T20:21:59.576Z,66.00
2023-05-21T20:23:59.602Z,66.00
2023-05-21T20:25:59.634Z,66.00
2023-05-21T20:27:59.641Z,67.00
2023-05-21T20:29:59.599Z,68.00
2023-05-21T20:31:59.613Z,68.00
2023-05-21T20:33:59.721Z,68.00
2023-05-21T20:36:05.674Z,68.00
2023-05-21T20:38:02.408Z,69.00
2023-05-21T20:40:13.394Z,69.00
2023-05-21T20:42:05.620Z,69.00
2023-05-21T20:44:02.667Z,68.00
2023-05-21T20:46:18.545Z,69.00
2023-05-21T20:49:02.291Z,69.00
2023-05-21T20:50:08.675Z,69.00
2023-05-21T20:53:02.494Z,69.00
2023-05-21T20:54:59.850Z,69.00
2023-05-21T20:57:05.505Z,69.00
2023-05-21T20:59:02.424Z,69.00
2023-05-21T21:01:04.197Z,69.00
2023-05-21T21:02:59.704Z,69.00
2023-05-21T21:04:13.885Z,69.00
2023-05-21T21:06:08.446Z,70.00
2023-05-21T21:08:59.582Z,70.00
2023-05-21T21:11:02.485Z,70.00
2023-05-21T21:13:02.726Z,70.00
2023-05-21T21:15:02.508Z,70.00
2023-05-21T21:16:59.808Z,70.00
2023-05-21T21:18:59.622Z,70.00
2023-05-21T21:20:59.752Z,70.00
2023-05-21T21:23:02.343Z,70.00
2023-05-21T21:25:08.264Z,70.00
2023-05-21T21:26:59.661Z,70.00
2023-05-21T21:28:59.693Z,70.00
2023-05-21T21:31:05.759Z,71.00
2023-05-21T21:32:59.748Z,71.00
2023-05-21T21:34:59.700Z,71.00
2023-05-21T21:37:02.376Z,71.00
2023-05-21T21:38:59.630Z,71.00
2023-05-21T21:41:08.976Z,71.00
2023-05-21T21:42:59.681Z,71.00
2023-05-21T21:44:59.631Z,71.00
2023-05-21T21:46:59.669Z,71.00
2023-05-21T21:48:59.697Z,71.00
2023-05-21T21:51:02.530Z,71.00
2023-05-21T21:53:02.586Z,71.00
2023-05-21T21:55:05.440Z,71.00
2023-05-21T21:56:59.637Z,71.00
2023-05-21T21:58:59.653Z,71.00
2023-05-21T22:00:59.642Z,71.00
2023-05-21T22:03:00.178Z,71.00
2023-05-21T22:04:59.794Z,71.00
2023-05-21T22:06:59.700Z,71.00
2023-05-21T22:08:59.735Z,71.00
2023-05-21T22:11:07.064Z,72.00
2023-05-21T22:13:02.766Z,72.00
2023-05-21T22:14:59.625Z,72.00
2023-05-21T22:16:59.790Z,72.00
2023-05-21T22:18:59.675Z,72.00
2023-05-21T22:20:59.699Z,72.00
2023-05-21T22:22:59.616Z,72.00
2023-05-21T22:26:59.681Z,71.00
2023-05-21T22:30:59.959Z,71.00
2023-05-21T22:32:59.714Z,71.00
2023-05-21T22:34:59.821Z,71.00
2023-05-21T22:36:59.863Z,71.00
2023-05-21T22:39:01.592Z,71.00
2023-05-21T22:41:01.859Z,71.00
2023-05-21T22:46:59.879Z,70.00
2023-05-21T22:50:59.767Z,69.00
2023-05-21T22:55:20.912Z,69.00
2023-05-21T22:57:20.932Z,69.00
2023-05-21T22:59:20.938Z,68.00
2023-05-21T23:01:35.351Z,68.00
2023-05-21T23:03:20.983Z,68.00
2023-05-21T23:05:20.986Z,68.00
2023-05-21T23:07:20.943Z,68.00
2023-05-21T23:09:20.987Z,68.00
2023-05-21T23:11:20.922Z,68.00
2023-05-21T23:13:20.935Z,68.00
2023-05-21T23:15:20.920Z,68.00
2023-05-21T23:17:20.930Z,68.00
2023-05-21T23:19:20.969Z,68.00
2023-05-21T23:21:22.318Z,68.00
2023-05-21T23:23:20.988Z,68.00
2023-05-21T23:25:20.944Z,68.00
2023-05-21T23:27:20.952Z,69.00
2023-05-21T23:29:21.225Z,69.00
2023-05-21T23:31:21.052Z,69.00
2023-05-21T23:33:25.842Z,69.00
2023-05-21T23:35:20.960Z,69.00
2023-05-21T23:37:21.003Z,69.00
2023-05-21T23:39:21.181Z,69.00
2023-05-21T23:41:20.948Z,69.00
2023-05-21T23:43:20.952Z,69.00
2023-05-21T23:45:24.406Z,70.00
2023-05-21T23:47:20.951Z,70.00
2023-05-21T23:49:20.997Z,70.00
2023-05-21T23:51:21.003Z,70.00
2023-05-21T23:53:20.996Z,70.00
2023-05-21T23:55:21.134Z,71.00
2023-05-21T23:57:21.015Z,71.00
2023-05-21T23:59:20.976Z,71.00
